Time;durP1;ratioP1;P1;durP2;ratioP2;P2;SDS_P1;SDS_P2;PMS_P1;PMS_P2;Temp;Humidity;BMP_temperature;BMP_pressure;BME280_temperature;BME280_humidity;BME280_pressure;Samples;Min_cycle;Max_cycle;Signal;HPM_P1;HPM_P2
2024/04/22 00:01:06;;;;;;;11.83;7.90;;;6.80;99.90;;;;;;5416673;26;20502;-60
2024/04/22 00:03:32;;;;;;;9.17;8.33;;;6.80;99.90;;;;;;5417583;26;20278;-61
2024/04/22 00:05:58;;;;;;;10.00;9.00;;;6.80;99.90;;;;;;5417097;26;20225;-60
2024/04/22 00:08:23;;;;;;;8.30;7.47;;;6.80;99.90;;;;;;5417575;26;20232;-60
2024/04/22 00:11:09;;;;;;;8.93;8.13;;;6.80;99.90;;;;;;5417359;26;20799;-61
2024/04/22 00:13:35;;;;;;;9.80;7.43;;;6.80;99.90;;;;;;5417204;26;20636;-60
2024/04/22 00:16:01;;;;;;;9.27;7.63;;;6.70;99.90;;;;;;5416874;26;20432;-60
2024/04/22 00:18:27;;;;;;;7.63;6.93;;;6.70;99.90;;;;;;5429300;26;20491;-61
2024/04/22 00:20:53;;;;;;;7.97;7.17;;;6.70;99.90;;;;;;5421209;26;20264;-59
2024/04/22 00:23:19;;;;;;;7.47;6.77;;;6.70;99.90;;;;;;5453256;26;20224;-60
2024/04/22 00:25:45;;;;;;;7.90;7.20;;;6.70;99.90;;;;;;5453233;26;20267;-60
2024/04/22 00:28:11;;;;;;;7.57;6.87;;;6.70;99.90;;;;;;5452599;26;20439;-60
2024/04/22 00:30:36;;;;;;;7.87;6.90;;;6.60;99.90;;;;;;5453298;26;20727;-61
2024/04/22 00:33:02;;;;;;;7.03;6.43;;;6.60;99.90;;;;;;5452719;26;20267;-60
2024/04/22 00:35:28;;;;;;;7.30;6.70;;;6.60;99.90;;;;;;5453325;26;20225;-61
2024/04/22 00:37:53;;;;;;;7.47;6.87;;;6.60;99.90;;;;;;5452434;26;20543;-60
2024/04/22 00:40:19;;;;;;;8.33;7.50;;;6.60;99.90;;;;;;5453076;26;20216;-61
2024/04/22 00:42:48;;;;;;;7.73;7.10;;;6.60;99.90;;;;;;5452890;26;20232;-61
2024/04/22 00:45:14;;;;;;;7.47;6.77;;;6.50;99.90;;;;;;5452261;26;20225;-61
2024/04/22 00:47:40;;;;;;;7.30;6.70;;;6.60;99.90;;;;;;5452981;26;20903;-61
2024/04/22 00:50:08;;;;;;;7.13;6.27;;;6.50;99.90;;;;;;5452698;26;20696;-60
2024/04/22 00:52:36;;;;;;;6.70;6.10;;;6.50;99.90;;;;;;5453526;26;20446;-61
2024/04/22 00:55:01;;;;;;;7.87;6.87;;;6.60;99.90;;;;;;5452516;26;20748;-60
2024/04/22 00:57:28;;;;;;;7.40;6.80;;;6.50;99.90;;;;;;5453098;26;20539;-60
2024/04/22 00:59:54;;;;;;;8.03;6.93;;;6.60;99.90;;;;;;5452300;26;20445;-59
2024/04/22 01:02:20;;;;;;;7.67;6.97;;;6.50;99.90;;;;;;5452985;26;20504;-61
2024/04/22 01:04:47;;;;;;;8.23;7.33;;;6.50;99.90;;;;;;5452943;26;20475;-61
2024/04/22 01:07:12;;;;;;;6.90;6.30;;;6.50;99.90;;;;;;5452357;26;20406;-61
2024/04/22 01:09:39;;;;;;;8.13;7.43;;;6.40;99.90;;;;;;5452938;26;20497;-60
2024/04/22 01:12:05;;;;;;;7.60;6.70;;;6.40;99.90;;;;;;5450891;26;20285;-60
2024/04/22 01:14:30;;;;;;;7.97;7.20;;;6.30;99.90;;;;;;5452567;26;20442;-61
2024/04/22 01:16:56;;;;;;;7.30;6.70;;;6.10;99.90;;;;;;5451779;26;20437;-60
2024/04/22 01:19:22;;;;;;;9.63;7.20;;;6.10;99.90;;;;;;5426409;26;20236;-60
2024/04/22 01:21:52;;;;;;;7.40;6.70;;;6.20;99.90;;;;;;5417260;26;20215;-61
2024/04/22 01:24:19;;;;;;;7.40;6.70;;;6.10;99.90;;;;;;5416104;26;20418;-60
2024/04/22 01:26:53;;;;;;;7.40;6.67;;;6.20;99.90;;;;;;5416579;26;20430;-61
2024/04/22 01:29:18;;;;;;;7.20;6.60;;;6.20;99.90;;;;;;5415591;26;20447;-60
2024/04/22 01:31:44;;;;;;;11.30;7.63;;;6.30;99.90;;;;;;5416409;26;20808;-60
2024/04/22 01:34:10;;;;;;;7.40;6.80;;;6.30;99.90;;;;;;5415654;26;20288;-60
2024/04/22 01:36:40;;;;;;;7.50;6.80;;;6.40;99.90;;;;;;5415951;26;20245;-60
2024/04/22 01:39:09;;;;;;;6.90;6.30;;;6.50;99.90;;;;;;5415675;26;20224;-60
2024/04/22 01:41:35;;;;;;;7.73;6.93;;;6.40;99.90;;;;;;5415825;26;20447;-61
2024/04/22 01:44:01;;;;;;;7.30;6.30;;;6.40;99.90;;;;;;5415449;26;20487;-60
2024/04/22 01:46:27;;;;;;;7.00;6.30;;;6.40;99.90;;;;;;5415786;26;20343;-60
2024/04/22 01:48:52;;;;;;;7.17;6.57;;;6.50;99.90;;;;;;5416032;26;20462;-61
2024/04/22 01:51:18;;;;;;;10.37;7.60;;;6.50;99.90;;;;;;5415201;26;20228;-60
2024/04/22 01:53:44;;;;;;;7.10;6.40;;;6.50;99.90;;;;;;5415787;26;20284;-61
2024/04/22 01:56:09;;;;;;;7.87;7.10;;;6.50;99.90;;;;;;5415122;26;20631;-60
2024/04/22 01:58:35;;;;;;;8.40;6.47;;;6.60;99.90;;;;;;5415908;26;20283;-61
2024/04/22 02:01:05;;;;;;;7.20;6.50;;;6.60;99.90;;;;;;5414806;26;20273;-60
2024/04/22 02:03:30;;;;;;;6.60;6.00;;;6.60;99.90;;;;;;5415451;26;20304;-60
2024/04/22 02:05:56;;;;;;;6.97;6.47;;;6.60;99.90;;;;;;5384102;26;20503;-59
2024/04/22 02:08:22;;;;;;;8.93;6.37;;;6.60;99.90;;;;;;5401883;26;20284;-61
2024/04/22 02:10:48;;;;;;;6.70;6.03;;;6.60;99.90;;;;;;5415532;26;20436;-61
2024/04/22 02:13:14;;;;;;;7.40;6.80;;;6.60;99.90;;;;;;5414582;26;20252;-60
2024/04/22 02:15:40;;;;;;;7.00;6.40;;;6.60;99.90;;;;;;5415618;26;20242;-60
2024/04/22 02:18:06;;;;;;;8.20;7.30;;;6.60;99.90;;;;;;5414513;26;20281;-60
2024/04/22 02:20:32;;;;;;;8.00;7.23;;;6.60;99.90;;;;;;5415661;26;20488;-60
2024/04/22 02:22:59;;;;;;;8.90;7.90;;;6.60;99.90;;;;;;5414421;26;20447;-59
2024/04/22 02:25:24;;;;;;;6.80;6.20;;;6.70;99.90;;;;;;5417594;26;20992;-60
2024/04/22 02:27:51;;;;;;;7.70;7.10;;;6.70;99.90;;;;;;5418927;26;20451;-61
2024/04/22 02:30:17;;;;;;;7.63;6.97;;;6.70;99.90;;;;;;5418058;26;20741;-61
2024/04/22 02:32:43;;;;;;;7.93;7.13;;;6.70;99.90;;;;;;5418632;26;20774;-61
2024/04/22 02:35:08;;;;;;;7.50;6.87;;;6.70;99.90;;;;;;5418105;26;20456;-60
2024/04/22 02:37:35;;;;;;;6.93;6.40;;;6.70;99.90;;;;;;5418606;26;20230;-61
2024/04/22 02:40:00;;;;;;;7.87;7.10;;;6.70;99.90;;;;;;5417999;26;20234;-60
2024/04/22 02:42:26;;;;;;;7.87;7.17;;;6.70;99.90;;;;;;5418603;26;21062;-61
2024/04/22 02:44:52;;;;;;;7.10;6.40;;;6.70;99.90;;;;;;5418209;26;20280;-60
2024/04/22 02:47:17;;;;;;;7.43;6.50;;;6.80;99.90;;;;;;5417538;26;20327;-61
2024/04/22 02:49:43;;;;;;;7.60;6.80;;;6.70;99.90;;;;;;5418693;26;20238;-61
2024/04/22 02:52:09;;;;;;;8.60;7.80;;;6.70;99.90;;;;;;5417737;26;20241;-61
2024/04/22 02:54:35;;;;;;;7.57;6.87;;;6.80;99.90;;;;;;5418585;26;20353;-60
2024/04/22 02:57:00;;;;;;;7.27;6.67;;;6.80;99.90;;;;;;5417843;26;20238;-59
2024/04/22 02:59:26;;;;;;;7.17;6.50;;;6.80;99.90;;;;;;5418743;26;20303;-60
2024/04/22 03:01:52;;;;;;;7.23;6.57;;;6.90;99.90;;;;;;5418265;26;20237;-60
2024/04/22 03:04:17;;;;;;;7.30;6.70;;;6.80;99.90;;;;;;5417467;26;20274;-60
2024/04/22 03:06:43;;;;;;;7.77;7.00;;;6.90;99.90;;;;;;5418577;26;20494;-60
2024/04/22 03:09:09;;;;;;;7.73;7.03;;;6.90;99.90;;;;;;5417643;26;20234;-60
2024/04/22 03:11:35;;;;;;;7.50;6.80;;;6.90;99.90;;;;;;5418569;26;20265;-61
2024/04/22 03:14:00;;;;;;;7.93;7.10;;;6.90;99.90;;;;;;5418001;26;20234;-61
2024/04/22 03:16:26;;;;;;;8.53;7.10;;;6.90;99.90;;;;;;5418238;26;20285;-60
2024/04/22 03:18:52;;;;;;;8.50;7.40;;;6.90;99.90;;;;;;5418196;26;20509;-61
2024/04/22 03:21:17;;;;;;;7.63;6.90;;;6.90;99.90;;;;;;5417601;26;20289;-61
2024/04/22 03:23:43;;;;;;;7.60;6.90;;;6.90;99.90;;;;;;5417894;26;20273;-60
2024/04/22 03:26:10;;;;;;;7.13;6.43;;;7.00;99.90;;;;;;5386338;26;20695;-61
2024/04/22 03:28:37;;;;;;;7.67;7.00;;;7.00;99.90;;;;;;5418188;26;20714;-61
2024/04/22 03:31:03;;;;;;;8.10;7.40;;;7.00;99.90;;;;;;5417364;26;20505;-60
2024/04/22 03:33:29;;;;;;;7.80;7.13;;;7.00;99.90;;;;;;5417921;26;20449;-61
2024/04/22 03:36:01;;;;;;;7.20;6.57;;;7.10;99.90;;;;;;5417566;26;20423;-61
2024/04/22 03:38:27;;;;;;;7.97;7.13;;;7.00;99.90;;;;;;5417974;26;20664;-61
2024/04/22 03:40:53;;;;;;;7.13;6.53;;;7.00;99.90;;;;;;5417950;26;20447;-61
2024/04/22 03:43:19;;;;;;;7.37;6.67;;;7.00;99.90;;;;;;5416930;26;20238;-60
2024/04/22 03:49:50;;;;;;;7.10;6.40;;;7.00;99.90;;;;;;5417886;26;20233;-61
2024/04/22 03:51:14;;;;;;;7.20;6.50;;;6.90;99.90;;;;;;5416935;26;20444;-61
2024/04/22 03:53:40;;;;;;;7.13;6.53;;;6.80;99.90;;;;;;5417695;26;20594;-60
2024/04/22 03:56:06;;;;;;;7.10;6.40;;;6.80;99.90;;;;;;5416897;26;20282;-60
2024/04/22 03:58:31;;;;;;;7.90;7.20;;;6.80;99.90;;;;;;5417819;26;20235;-61
2024/04/22 04:00:57;;;;;;;7.37;6.77;;;6.80;99.90;;;;;;5417348;26;20563;-60
2024/04/22 04:03:23;;;;;;;7.87;7.20;;;6.80;99.90;;;;;;5385733;26;20733;-60
2024/04/22 04:05:48;;;;;;;8.40;7.60;;;6.80;99.90;;;;;;5416827;26;20228;-60
2024/04/22 04:08:14;;;;;;;9.03;6.90;;;6.80;99.90;;;;;;5415984;26;20250;-60
2024/04/22 04:10:40;;;;;;;7.50;6.80;;;6.80;99.90;;;;;;5416764;26;20240;-61
2024/04/22 04:13:05;;;;;;;8.13;7.37;;;6.90;99.90;;;;;;5385205;26;20329;-60
2024/04/22 04:15:33;;;;;;;8.20;7.47;;;6.90;99.90;;;;;;5417114;26;20226;-60
2024/04/22 04:17:59;;;;;;;8.00;7.30;;;6.90;99.90;;;;;;5417120;26;20571;-62
2024/04/22 04:20:25;;;;;;;7.97;7.17;;;6.90;99.90;;;;;;5416896;26;20842;-60
2024/04/22 04:22:50;;;;;;;9.03;7.73;;;6.90;99.90;;;;;;5385967;26;20440;-61
2024/04/22 04:25:16;;;;;;;8.20;7.60;;;6.90;99.90;;;;;;5416522;26;20232;-60
2024/04/22 04:27:42;;;;;;;9.10;8.30;;;6.90;99.90;;;;;;5417184;26;20686;-61
2024/04/22 04:30:08;;;;;;;8.70;7.90;;;6.90;99.90;;;;;;5416374;26;20417;-60
2024/04/22 04:32:34;;;;;;;9.33;8.33;;;6.90;99.90;;;;;;5417254;26;20581;-61
2024/04/22 04:35:00;;;;;;;9.53;8.63;;;6.80;99.90;;;;;;5417332;26;20493;-61
2024/04/22 04:37:25;;;;;;;8.53;7.83;;;6.80;99.90;;;;;;5416143;26;20232;-60
2024/04/22 04:39:51;;;;;;;10.17;9.27;;;6.80;99.90;;;;;;5416474;26;20326;-61
2024/04/22 04:42:17;;;;;;;10.70;9.60;;;6.90;99.90;;;;;;5416303;26;20284;-60
2024/04/22 04:44:42;;;;;;;9.30;8.50;;;6.80;99.90;;;;;;5416404;26;20523;-60
2024/04/22 04:47:08;;;;;;;8.57;7.87;;;6.80;99.90;;;;;;5414187;26;20249;-59
2024/04/22 04:49:34;;;;;;;10.00;9.10;;;6.90;99.90;;;;;;5416739;26;20656;-60
2024/04/22 04:51:59;;;;;;;7.60;6.90;;;6.90;99.90;;;;;;5416756;26;20238;-60
2024/04/22 04:54:25;;;;;;;8.60;7.10;;;6.90;99.90;;;;;;5415869;26;20344;-60
2024/04/22 04:56:51;;;;;;;8.53;6.77;;;7.00;99.90;;;;;;5416875;26;20237;-61
2024/04/22 04:59:17;;;;;;;8.07;7.40;;;7.00;99.90;;;;;;5415760;26;20718;-60
2024/04/22 05:01:42;;;;;;;7.93;7.13;;;7.00;99.90;;;;;;5415737;26;20277;-61
2024/04/22 05:04:08;;;;;;;8.90;7.93;;;7.10;99.90;;;;;;5415627;26;20238;-60
2024/04/22 05:06:34;;;;;;;9.30;8.40;;;7.10;99.90;;;;;;5416790;26;20559;-61
2024/04/22 05:09:00;;;;;;;8.67;7.40;;;7.10;99.90;;;;;;5415875;26;21080;-61
2024/04/22 05:11:26;;;;;;;10.47;7.40;;;7.10;99.90;;;;;;5415394;26;20459;-61
2024/04/22 05:13:52;;;;;;;8.53;7.77;;;7.20;99.90;;;;;;5416171;26;20245;-62
2024/04/22 05:16:18;;;;;;;7.43;6.73;;;7.30;99.90;;;;;;5384068;26;20235;-62
2024/04/22 05:18:44;;;;;;;7.57;6.67;;;7.30;99.90;;;;;;5415936;26;20590;-63
2024/04/22 05:21:10;;;;;;;8.13;7.23;;;7.30;99.90;;;;;;5415505;26;20222;-62
2024/04/22 05:23:36;;;;;;;9.50;7.57;;;7.40;99.90;;;;;;5416186;26;20250;-62
2024/04/22 05:26:01;;;;;;;8.27;7.47;;;7.40;99.90;;;;;;5416398;26;20488;-62
2024/04/22 05:28:27;;;;;;;7.33;6.63;;;7.40;99.90;;;;;;5415725;26;20634;-62
2024/04/22 05:30:53;;;;;;;9.00;8.10;;;7.40;99.90;;;;;;5415847;26;20325;-62
2024/04/22 05:36:11;;;;;;;8.50;7.70;;;7.40;99.90;;;;;;5415602;26;20871;-63
2024/04/22 05:38:41;;;;;;;10.10;9.10;;;7.40;99.90;;;;;;5385125;26;21066;-62
2024/04/22 05:41:08;;;;;;;8.00;7.20;;;7.40;99.90;;;;;;5415875;26;20445;-62
2024/04/22 05:43:35;;;;;;;9.20;8.30;;;7.50;99.90;;;;;;5405708;26;20501;-67
2024/04/22 05:46:01;;;;;;;9.90;8.90;;;7.60;99.90;;;;;;5415095;26;20847;-65
2024/04/22 05:48:26;;;;;;;9.20;7.80;;;7.50;99.90;;;;;;5414676;26;20529;-65
2024/04/22 05:50:52;;;;;;;8.53;7.60;;;7.40;99.90;;;;;;5416064;26;20707;-60
2024/04/22 05:53:18;;;;;;;10.80;9.70;;;7.50;99.90;;;;;;5414228;26;20243;-63
2024/04/22 05:55:44;;;;;;;10.73;9.67;;;7.50;99.90;;;;;;5415515;26;20308;-64
2024/04/22 05:58:10;;;;;;;11.97;10.43;;;7.50;99.90;;;;;;5416366;26;20223;-64
2024/04/22 06:00:35;;;;;;;9.80;8.20;;;7.50;99.90;;;;;;5419544;26;20445;-64
2024/04/22 06:03:01;;;;;;;11.93;10.63;;;7.60;99.90;;;;;;5419472;26;20481;-63
2024/04/22 06:05:28;;;;;;;10.10;9.20;;;7.60;99.90;;;;;;5418745;26;20223;-64
2024/04/22 06:07:54;;;;;;;10.60;9.50;;;7.70;99.90;;;;;;5419064;26;20602;-64
2024/04/22 06:10:20;;;;;;;10.63;9.60;;;7.70;99.90;;;;;;5418345;26;20444;-63
2024/04/22 06:12:46;;;;;;;11.10;9.90;;;7.80;99.90;;;;;;5419074;26;20441;-62
2024/04/22 06:15:11;;;;;;;10.93;9.33;;;7.90;99.90;;;;;;5418274;26;20500;-61
2024/04/22 06:17:37;;;;;;;10.50;9.47;;;7.90;99.90;;;;;;5418067;26;20246;-60
2024/04/22 06:20:04;;;;;;;12.80;11.50;;;8.00;99.90;;;;;;5418922;26;20223;-61
2024/04/22 06:22:32;;;;;;;11.90;10.47;;;8.00;99.90;;;;;;5418503;26;20226;-62
2024/04/22 06:24:58;;;;;;;14.10;9.90;;;8.10;99.90;;;;;;5419014;26;20444;-62
2024/04/22 06:27:23;;;;;;;13.37;10.23;;;8.10;99.90;;;;;;5418209;26;20476;-62
2024/04/22 06:29:49;;;;;;;16.30;10.67;;;8.10;99.90;;;;;;5418280;26;20283;-61
2024/04/22 06:32:15;;;;;;;12.43;11.13;;;8.20;99.90;;;;;;5417710;26;20711;-61
2024/04/22 06:34:41;;;;;;;14.83;10.20;;;8.20;99.90;;;;;;5419076;26;20269;-62
2024/04/22 06:37:06;;;;;;;11.43;10.23;;;8.20;99.90;;;;;;5418597;26;20449;-62
2024/04/22 06:39:32;;;;;;;12.33;11.20;;;8.30;99.90;;;;;;5417826;26;20523;-61
2024/04/22 06:41:58;;;;;;;10.77;9.67;;;8.30;99.90;;;;;;5419189;26;20265;-61
2024/04/22 06:44:24;;;;;;;9.57;8.20;;;8.40;99.90;;;;;;5418129;26;20227;-62
2024/04/22 06:46:50;;;;;;;11.03;10.03;;;8.40;99.90;;;;;;5418780;26;20889;-61
2024/04/22 06:49:16;;;;;;;10.57;9.40;;;8.50;99.90;;;;;;5386377;26;20241;-62
2024/04/22 06:51:41;;;;;;;9.00;7.47;;;8.50;99.90;;;;;;5387284;26;20236;-62
2024/04/22 06:54:07;;;;;;;9.40;8.37;;;8.50;99.90;;;;;;5418540;26;20556;-62
2024/04/22 06:56:33;;;;;;;8.27;7.47;;;8.60;99.90;;;;;;5386312;26;20887;-62
2024/04/22 06:58:58;;;;;;;10.40;8.97;;;8.70;99.90;;;;;;5417288;26;20291;-62
2024/04/22 07:01:24;;;;;;;9.13;8.33;;;8.70;99.90;;;;;;5386586;26;20252;-61
2024/04/22 07:03:50;;;;;;;9.80;8.63;;;8.60;99.90;;;;;;5418582;26;20216;-61
2024/04/22 07:06:17;;;;;;;9.17;8.23;;;8.40;99.90;;;;;;5418007;26;20236;-62
2024/04/22 07:08:43;;;;;;;8.50;7.70;;;8.40;99.90;;;;;;5418593;26;20361;-62
2024/04/22 07:11:08;;;;;;;10.60;8.33;;;8.50;99.90;;;;;;5417450;26;20441;-61
2024/04/22 07:13:34;;;;;;;9.73;8.73;;;8.60;99.90;;;;;;5386495;26;20329;-61
2024/04/22 07:16:00;;;;;;;9.30;8.30;;;8.50;99.90;;;;;;5418586;26;20224;-61
2024/04/22 07:18:25;;;;;;;10.07;8.10;;;8.60;99.90;;;;;;5417394;26;20239;-61
2024/04/22 07:20:51;;;;;;;9.20;8.30;;;8.70;99.90;;;;;;5418357;26;20322;-62
2024/04/22 07:23:17;;;;;;;8.40;7.30;;;8.60;99.90;;;;;;5417580;26;20217;-61
2024/04/22 07:25:42;;;;;;;8.13;7.33;;;8.80;99.90;;;;;;5418243;26;20227;-61
2024/04/22 07:28:09;;;;;;;7.60;6.90;;;8.90;99.90;;;;;;5418378;26;20211;-61
2024/04/22 07:30:35;;;;;;;11.20;8.23;;;9.00;99.90;;;;;;5417495;26;20219;-62
2024/04/22 07:33:01;;;;;;;9.03;8.13;;;9.10;99.90;;;;;;5418051;26;20449;-62
2024/04/22 07:35:27;;;;;;;8.00;7.23;;;9.20;99.90;;;;;;5417517;26;20556;-61
2024/04/22 07:37:57;;;;;;;7.20;6.60;;;9.30;99.90;;;;;;5417783;26;20441;-61
2024/04/22 07:40:24;;;;;;;10.43;8.53;;;9.40;99.90;;;;;;5417376;26;20511;-61
2024/04/22 07:42:49;;;;;;;7.97;7.17;;;9.60;99.90;;;;;;5417958;26;20480;-61
2024/04/22 07:45:19;;;;;;;7.47;6.67;;;9.80;99.90;;;;;;5417986;26;20439;-62
2024/04/22 07:47:46;;;;;;;7.70;7.10;;;9.90;99.90;;;;;;5417936;26;20693;-61
2024/04/22 07:50:12;;;;;;;8.10;7.33;;;10.00;99.90;;;;;;5417954;26;20446;-61
2024/04/22 07:52:39;;;;;;;9.53;6.87;;;9.90;99.90;;;;;;5417365;26;20845;-61
2024/04/22 07:55:06;;;;;;;7.97;7.00;;;9.90;99.90;;;;;;5418044;26;20452;-61
2024/04/22 07:57:33;;;;;;;7.50;6.90;;;9.70;99.90;;;;;;5385743;26;20939;-61
2024/04/22 07:59:59;;;;;;;7.03;6.47;;;9.70;99.90;;;;;;5417233;26;20447;-61
2024/04/22 08:02:25;;;;;;;6.60;6.00;;;9.90;99.90;;;;;;5417169;26;20567;-61
2024/04/22 08:04:51;;;;;;;6.23;5.73;;;10.00;99.30;;;;;;5386187;26;21007;-61
2024/04/22 08:07:18;;;;;;;6.80;6.10;;;10.00;97.10;;;;;;5417682;26;20789;-61
2024/04/22 08:09:45;;;;;;;6.63;5.00;;;10.20;99.90;;;;;;5386527;26;20831;-62
2024/04/22 08:12:12;;;;;;;6.90;5.80;;;10.30;98.20;;;;;;5417532;26;20425;-61
2024/04/22 08:14:39;;;;;;;5.93;5.43;;;10.40;98.80;;;;;;5416620;26;20951;-61
2024/04/22 08:17:05;;;;;;;5.87;5.40;;;10.40;96.30;;;;;;5417085;26;20434;-61
2024/04/22 08:19:30;;;;;;;5.67;5.17;;;10.50;98.10;;;;;;5416927;26;20911;-62
2024/04/22 08:21:56;;;;;;;6.37;5.73;;;10.60;95.40;;;;;;5417248;26;20261;-61
2024/04/22 08:24:24;;;;;;;6.30;5.80;;;10.60;98.00;;;;;;5415798;26;20239;-61
2024/04/22 08:26:54;;;;;;;6.13;5.63;;;10.60;98.00;;;;;;5417259;26;20242;-61
2024/04/22 08:29:20;;;;;;;5.80;5.30;;;10.70;99.90;;;;;;5415794;26;20507;-61
2024/04/22 08:31:46;;;;;;;5.30;4.97;;;10.80;98.50;;;;;;5416535;26;20447;-62
2024/04/22 08:34:11;;;;;;;4.90;4.57;;;11.00;97.20;;;;;;5385920;26;20261;-61
2024/04/22 08:36:37;;;;;;;5.30;4.90;;;11.20;99.90;;;;;;5416837;26;20325;-61
2024/04/22 08:39:04;;;;;;;5.00;4.43;;;11.30;99.30;;;;;;5417216;26;20467;-61
2024/04/22 08:41:29;;;;;;;6.97;6.53;;;11.50;95.60;;;;;;5416545;26;20285;-61
2024/04/22 08:43:55;;;;;;;5.23;4.83;;;11.70;97.00;;;;;;5417226;26;20429;-61
2024/04/22 08:46:21;;;;;;;5.77;5.27;;;11.90;95.80;;;;;;5415664;26;20232;-61
2024/04/22 08:48:47;;;;;;;5.20;4.33;;;12.00;92.00;;;;;;5416498;26;20240;-61
2024/04/22 08:51:13;;;;;;;6.90;6.40;;;12.00;91.40;;;;;;5416816;26;20569;-61
2024/04/22 08:53:39;;;;;;;4.97;4.57;;;12.20;91.90;;;;;;5416115;26;20248;-64
2024/04/22 08:56:06;;;;;;;5.80;5.40;;;12.20;87.80;;;;;;5408147;26;20502;-64
2024/04/22 08:58:31;;;;;;;6.45;5.95;;;12.20;87.10;;;;;;5413727;26;20339;-63
2024/04/22 09:00:57;;;;;;;5.30;4.80;;;12.30;87.30;;;;;;5416245;26;20233;-64
2024/04/22 09:03:23;;;;;;;5.90;5.50;;;12.60;92.10;;;;;;5409343;26;20834;-64
2024/04/22 09:05:51;;;;;;;5.27;4.80;;;12.60;87.40;;;;;;5399429;26;20280;-64
2024/04/22 09:08:18;;;;;;;5.97;5.47;;;12.70;93.40;;;;;;5416280;26;20570;-64
2024/04/22 09:10:44;;;;;;;5.43;5.03;;;12.80;86.60;;;;;;5416282;26;21036;-64
2024/04/22 09:13:09;;;;;;;5.43;5.03;;;12.90;85.50;;;;;;5416898;26;20433;-64
2024/04/22 09:15:35;;;;;;;4.53;4.23;;;12.50;77.70;;;;;;5416120;26;20278;-63
2024/04/22 09:18:01;;;;;;;4.77;4.40;;;12.30;87.40;;;;;;5416099;26;20342;-65
2024/04/22 09:20:34;;;;;;;4.27;3.97;;;12.50;87.60;;;;;;5415963;26;20326;-64
2024/04/22 09:23:00;;;;;;;4.53;4.20;;;12.70;81.50;;;;;;5411463;26;20507;-64
2024/04/22 09:25:26;;;;;;;5.70;5.20;;;12.80;88.20;;;;;;5380122;26;20491;-64
2024/04/22 09:27:53;;;;;;;6.03;4.80;;;13.00;84.00;;;;;;5415808;26;20445;-64
2024/04/22 09:30:23;;;;;;;5.43;4.93;;;13.10;84.90;;;;;;5415927;26;20448;-64
2024/04/22 09:32:52;;;;;;;6.00;5.63;;;13.20;83.80;;;;;;5416699;26;20460;-64
2024/04/22 09:35:21;;;;;;;7.80;7.10;;;13.30;86.30;;;;;;5423193;26;20445;-64
2024/04/22 09:37:48;;;;;;;14.10;6.30;;;13.10;73.90;;;;;;5421932;26;20488;-62
2024/04/22 09:40:15;;;;;;;9.63;6.60;;;13.20;88.70;;;;;;5423109;26;20496;-62
2024/04/22 09:42:42;;;;;;;5.83;4.80;;;13.30;87.60;;;;;;5421719;26;20493;-62
2024/04/22 09:45:09;;;;;;;5.50;5.10;;;13.40;86.00;;;;;;5423792;26;20504;-62
2024/04/22 09:47:37;;;;;;;4.53;4.23;;;13.40;83.10;;;;;;5391706;26;20467;-62
2024/04/22 09:50:06;;;;;;;5.80;5.30;;;12.90;71.20;;;;;;5423759;26;20955;-62
2024/04/22 09:52:33;;;;;;;3.97;3.67;;;12.80;73.30;;;;;;5422989;26;20905;-61
2024/04/22 09:55:05;;;;;;;5.17;4.77;;;12.80;73.80;;;;;;5423755;26;20431;-61
2024/04/22 09:57:34;;;;;;;6.10;5.70;;;12.60;71.00;;;;;;5422889;26;20452;-62
2024/04/22 10:00:01;;;;;;;6.10;5.70;;;12.00;70.60;;;;;;5423512;26;20429;-61
2024/04/22 10:02:28;;;;;;;5.57;5.20;;;11.90;72.70;;;;;;5422893;26;20482;-62
2024/04/22 10:04:54;;;;;;;5.63;5.23;;;12.10;81.00;;;;;;5423349;26;20430;-61
2024/04/22 10:07:20;;;;;;;4.93;4.40;;;12.10;79.00;;;;;;5423559;26;20433;-63
2024/04/22 10:09:49;;;;;;;4.70;4.30;;;12.20;75.90;;;;;;5422931;26;20429;-62
2024/04/22 10:12:23;;;;;;;4.33;4.03;;;12.20;75.40;;;;;;5392172;26;20262;-63
2024/04/22 10:14:49;;;;;;;5.43;4.93;;;12.20;83.40;;;;;;5422664;26;20486;-62
2024/04/22 10:17:17;;;;;;;4.70;4.40;;;12.30;87.10;;;;;;5423115;26;20454;-62
2024/04/22 10:19:44;;;;;;;5.30;4.90;;;12.40;73.70;;;;;;5422242;26;20560;-62
2024/04/22 10:22:13;;;;;;;5.10;4.70;;;12.40;79.70;;;;;;5459333;26;20495;-64
2024/04/22 10:24:40;;;;;;;7.77;7.07;;;12.40;80.40;;;;;;5458470;26;20543;-62
2024/04/22 10:27:10;;;;;;;6.10;5.60;;;12.30;81.90;;;;;;5459322;26;20425;-61
2024/04/22 10:29:36;;;;;;;7.83;7.20;;;12.20;88.10;;;;;;5458639;26;20429;-62
2024/04/22 10:32:03;;;;;;;5.10;4.70;;;12.20;91.50;;;;;;5459102;26;20774;-61
2024/04/22 10:34:28;;;;;;;6.63;6.03;;;12.20;92.60;;;;;;5458422;26;20491;-62
2024/04/22 10:36:55;;;;;;;6.33;5.83;;;12.10;95.70;;;;;;5457792;26;20438;-61
2024/04/22 10:39:27;;;;;;;5.43;5.00;;;11.90;95.70;;;;;;5458515;26;20275;-61
2024/04/22 10:41:53;;;;;;;6.77;6.37;;;11.70;96.60;;;;;;5459011;26;20827;-61
2024/04/22 10:44:20;;;;;;;6.00;5.47;;;11.60;98.60;;;;;;5425862;26;20442;-62
2024/04/22 10:46:46;;;;;;;5.20;4.70;;;11.50;99.90;;;;;;5452974;26;20927;-62
2024/04/22 10:49:12;;;;;;;6.70;6.00;;;11.40;99.90;;;;;;5454740;26;20986;-62
2024/04/22 10:51:37;;;;;;;8.53;5.20;;;11.30;99.90;;;;;;5453527;26;20430;-62
2024/04/22 10:54:03;;;;;;;5.20;4.70;;;11.30;99.90;;;;;;5454952;26;20266;-62
2024/04/22 10:56:30;;;;;;;5.90;5.40;;;11.20;99.90;;;;;;5453033;26;20286;-62
2024/04/22 10:58:56;;;;;;;5.30;4.80;;;11.20;99.90;;;;;;5452540;26;20338;-62
2024/04/22 11:01:22;;;;;;;5.37;4.90;;;11.20;99.90;;;;;;5451530;26;20852;-62
2024/04/22 11:03:48;;;;;;;5.50;5.10;;;11.20;99.90;;;;;;5453554;26;21028;-62
2024/04/22 11:06:14;;;;;;;5.73;5.33;;;11.10;99.90;;;;;;5454372;26;20442;-62
2024/04/22 11:08:41;;;;;;;5.40;5.00;;;11.00;99.90;;;;;;5453117;26;20230;-62
2024/04/22 11:11:08;;;;;;;6.50;5.90;;;11.00;99.90;;;;;;5454003;26;20714;-62
2024/04/22 11:13:38;;;;;;;6.50;5.50;;;10.90;99.80;;;;;;5453504;26;20440;-62
2024/04/22 11:16:10;;;;;;;8.03;7.43;;;10.60;98.50;;;;;;5422238;26;20494;-62
2024/04/22 11:18:37;;;;;;;6.97;6.37;;;10.60;99.90;;;;;;5438043;26;20520;-61
2024/04/22 11:21:04;;;;;;;6.77;6.20;;;10.20;99.90;;;;;;5417706;26;20535;-62
2024/04/22 11:23:31;;;;;;;7.83;7.13;;;10.50;99.90;;;;;;5417158;26;21067;-62
2024/04/22 11:25:57;;;;;;;7.57;7.07;;;10.70;99.90;;;;;;5417938;26;20440;-61
2024/04/22 11:28:24;;;;;;;6.70;6.20;;;10.80;99.90;;;;;;5417959;26;20827;-60
2024/04/22 11:30:50;;;;;;;7.10;6.60;;;10.50;99.00;;;;;;5386388;26;20731;-60
2024/04/22 11:33:17;;;;;;;5.80;5.40;;;10.50;98.40;;;;;;5418324;26;21004;-61
2024/04/22 11:35:43;;;;;;;7.70;7.10;;;10.60;99.10;;;;;;5416663;26;20439;-61
2024/04/22 11:38:16;;;;;;;6.53;6.03;;;10.70;99.90;;;;;;5417551;26;20516;-61
2024/04/22 11:40:43;;;;;;;7.73;7.23;;;10.70;98.60;;;;;;5417224;26;21055;-60
2024/04/22 11:43:09;;;;;;;6.03;5.60;;;10.60;98.00;;;;;;5418024;26;21100;-60
2024/04/22 11:45:35;;;;;;;7.27;6.43;;;10.70;98.60;;;;;;5416546;26;20450;-60
2024/04/22 11:48:01;;;;;;;6.90;6.20;;;10.80;99.30;;;;;;5417912;26;20467;-60
2024/04/22 11:50:26;;;;;;;5.90;5.43;;;10.90;99.60;;;;;;5386276;26;20223;-61
2024/04/22 11:52:52;;;;;;;6.23;5.70;;;11.00;96.90;;;;;;5416355;26;20239;-60
2024/04/22 11:55:18;;;;;;;5.23;4.73;;;11.10;96.80;;;;;;5416991;26;20236;-60
2024/04/22 11:57:44;;;;;;;5.97;5.47;;;11.30;97.50;;;;;;5416373;26;20228;-60
2024/04/22 12:00:10;;;;;;;5.30;4.80;;;11.30;96.20;;;;;;5417858;26;20224;-60
2024/04/22 12:02:36;;;;;;;5.80;5.30;;;11.50;95.10;;;;;;5385131;26;20235;-60
2024/04/22 12:05:09;;;;;;;5.80;5.37;;;11.70;95.40;;;;;;5417608;26;20499;-61
2024/04/22 12:07:36;;;;;;;6.60;5.70;;;11.90;94.00;;;;;;5416810;26;20487;-61
2024/04/22 12:10:03;;;;;;;6.37;5.10;;;12.10;95.70;;;;;;5417776;26;20450;-61
2024/04/22 12:12:29;;;;;;;6.43;5.93;;;12.30;95.20;;;;;;5417553;26;20962;-65
2024/04/22 12:14:55;;;;;;;5.43;4.90;;;12.50;93.70;;;;;;5383272;26;20566;-63
2024/04/22 12:17:23;;;;;;;6.70;6.30;;;12.70;94.40;;;;;;5417438;26;20342;-65
2024/04/22 12:19:50;;;;;;;5.67;5.27;;;12.90;90.10;;;;;;5416553;26;20235;-64
2024/04/22 12:22:16;;;;;;;5.20;4.80;;;13.00;82.80;;;;;;5413425;26;20798;-64
2024/04/22 12:24:43;;;;;;;6.30;5.80;;;13.00;83.70;;;;;;5416465;26;20540;-63
2024/04/22 12:27:09;;;;;;;5.40;5.00;;;13.10;82.90;;;;;;5417718;26;20657;-64
2024/04/22 12:29:35;;;;;;;5.40;4.60;;;13.10;87.50;;;;;;5416138;26;20856;-63
2024/04/22 12:32:02;;;;;;;5.30;5.00;;;13.10;85.20;;;;;;5416405;26;20266;-64
2024/04/22 12:34:27;;;;;;;4.90;4.50;;;13.10;91.40;;;;;;5415636;26;20464;-63
2024/04/22 12:36:53;;;;;;;5.60;5.30;;;13.10;84.30;;;;;;5394748;26;20779;-65
2024/04/22 12:39:19;;;;;;;5.67;5.27;;;13.10;92.40;;;;;;5416939;26;20235;-64
2024/04/22 12:41:45;;;;;;;5.67;5.13;;;13.10;85.20;;;;;;5416429;26;20239;-64
2024/04/22 12:44:10;;;;;;;6.00;5.50;;;13.10;90.10;;;;;;5416645;26;20694;-64
2024/04/22 12:52:05;;;;;;;7.30;6.83;;;13.00;84.80;;;;;;5416028;26;20496;-64
2024/04/22 12:54:32;;;;;;;5.27;4.87;;;13.00;87.20;;;;;;5416468;26;20456;-64
2024/04/22 12:56:57;;;;;;;9.20;8.70;;;13.00;87.70;;;;;;5415954;26;20846;-64